Tiempo atmosférico en la estación meteorológica de El Paso, Santa Cruz de Tenerife (844 m.)



Fecha
DESCASC
Temp. máxima en grados centígrados (hora)
DESCASC
Temp. mínima en grados centígrados (hora)
DESCASC
Temp. media en grados centígrados
DESCASC
Racha de viento máxima en m/sg (hora)
DESCASC
Velocidad máxima media en intervalos de 10 minutos(hora)
DESCASC
Precipitaciones diarias en mm
DESCASC
Precipitaciones de 00:00 a 06:00 en mm
DESCASC
Precipitaciones de 06:00 a 12:00 en mm
DESCASC
Precipitaciones de 12:00 a 18:00 en mm
DESCASC
Precipitaciones de 18:00 a 24:00 en mm
DESCASC
02-04-2020 18.2 (11:30) 7.2 (06:40) 12.7 7.22 (16:10) 5 (16:10) 0 0 0 0 0
01-04-2020 18 (15:40) 5.9 (07:20) 12 7.5 (16:30) 4.17 (15:40) 0 0 0 0 0
31-03-2020 17.6 (14:30) 8.2 (00:00) 12.9 8.89 (14:20) 4.72 (15:50) 0 0 0 0 0
30-03-2020 16.2 (18:10) 7.3 (06:50) 11.8 7.5 (16:30) 4.72 (16:30) 0 0 0 0 0
29-03-2020 16.4 (13:10) 5.6 (00:00) 11 6.39 (13:30) 4.17 (13:40) 0 0 0 0 0
28-03-2020 16.4 (14:00) 4.5 (00:00) 10.4 8.89 (14:20) 4.72 (14:20) 0 0 0 0 0
27-03-2020 14.9 (14:40) 7.5 (00:00) 11.2 10.28 (16:30) 6.39 (14:00) 0 0 0 0 0
26-03-2020 14.2 (13:30) 7.4 (00:00) 10.8 8.61 (01:30) 5.28 (00:30) 0.2 0 0.2 0 0
25-03-2020 14.3 (13:20) 8.3 (00:00) 11.3 8.89 (23:20) 5.83 (23:00) 0.6 0 0 0.4 0.2
24-03-2020 16.8 (16:00) 6.9 (00:00) 11.8 9.72 (14:40) 5.56 (14:30) 0 0 0 0 0
23-03-2020 16.1 (15:30) 8.1 (00:00) 12.1 14.72 (03:20) 7.5 (15:20) 5.8 3 2.8 0 0
22-03-2020 16.1 (11:00) 5.8 (07:10) 11 13.89 (12:30) 9.72 (13:00) 1.4 0 0 0.4 1
21-03-2020 14.8 (12:40) 8.7 (00:00) 11.8 11.11 (08:20) 6.11 (08:10) 0 0 0 0 0
20-03-2020 15.8 (13:50) 8.8 (00:00) 12.3 14.44 (12:20) 8.33 (12:30) 0 0 0 0 0
19-03-2020 18.4 (14:30) 5.8 (00:00) 12.1 11.67 (09:20) 6.39 (09:20) 0 0 0 0 0
18-03-2020 15.4 (12:20) 8.3 (00:00) 11.8 11.94 (01:30) 6.94 (11:10) 0 0 0 0 0
17-03-2020 14.4 (11:50) 9.1 (00:00) 11.8 17.78 (02:20) 10.28 (02:20) 0 0 0 0 0
16-03-2020 16.1 (14:30) 9.9 (00:00) 13 18.33 (08:10) 9.17 (08:10) 0 0 0 0 0
15-03-2020 13.7 (14:40) 8.5 (00:00) 11.1 16.39 (20:30) 8.33 (20:20) 0.6 0 0 0.6 0
14-03-2020 15.4 (13:20) 10.6 (00:00) 13 12.78 (09:30) 7.22 (09:30) 0 0 0 0 0
13-03-2020 23.2 (13:30) 12.1 (22:10) 17.7 12.22 (22:20) 6.67 (21:40) 0 0 0 0 0
12-03-2020 26.4 (13:30) 14.5 (00:00) 20.4 7.22 (12:20) 4.17 (11:20) 0 0 0 0 0
11-03-2020 26 (12:20) 14.9 (00:00) 20.4 8.06 (15:30) 4.17 (04:10) 0 0 0 0 0
10-03-2020 25.7 (14:50) 16.6 (00:00) 21.2 13.06 (02:00) 7.5 (02:10) 0 0 0 0 0
09-03-2020 23.6 (16:20) 16.5 (00:00) 20.1 16.94 (00:30) 8.61 (00:10) 0 0 0 0 0
08-03-2020 24 (11:50) 8.1 (00:00) 16.1 15.28 (23:30) 9.17 (22:50) 0 0 0 0 0
07-03-2020 19.7 (17:50) 9.8 (00:00) 14.8 17.78 (03:30) 10 (12:00) 0 0 0 0 0
06-03-2020 14.6 (02:00) 10.2 (00:00) 12.4 22.78 (11:30) 13.06 (14:10) 0.6 0.2 0.4 0 0
05-03-2020 23.7 (12:10) 12.5 (00:00) 18.1 20.83 (21:10) 12.78 (21:10) 0 0 0 0 0

Gráficas

Temp. máximas Temp. mínimas Temp. medias Precipitaciones Rachas de viento máximas Velocidades máximas media en intervalos de 10 minutos

Datos horarios

Fecha y hora oficial Temperatura (ºC) Velocidad del viento (km/h) Dirección del viento Racha (km/h) Dirección de racha Precipitación (mm) Presión (hPa) Tendencia (hPa) Humedad (%)
2020-04-03 23:00:00 13.7 13 Oeste 28 Noroeste 0 -- -- 97
2020-04-03 22:00:00 13.8 14 Oeste 25 Oeste 0 -- -- 97
2020-04-03 21:00:00 14.1 15 Oeste 32 Oeste 0 -- -- 97
2020-04-03 20:00:00 14.3 24 Oeste 46 Oeste 0.2 -- -- 97
2020-04-03 19:00:00 14.7 27 Oeste 50 Oeste 0.2 -- -- 97
2020-04-03 18:00:00 15.1 32 Oeste 50 Oeste 3.2 -- -- 97
2020-04-03 17:00:00 14.8 27 Oeste 40 Oeste 5.8 -- -- 97
2020-04-03 16:00:00 14.5 24 Oeste 42 Oeste 6.4 -- -- 96
2020-04-03 15:00:00 13.9 10 Noroeste 27 Oeste 4.4 -- -- 95
2020-04-03 14:00:00 14.4 14 Oeste 26 Sudoeste 5.8 -- -- 92
2020-04-03 13:00:00 14.3 10 Oeste 21 Oeste 2.4 -- -- 91
2020-04-03 12:00:00 14.3 9 Noroeste 15 Noroeste 0.4 -- -- 89
2020-04-03 11:00:00 13 8 Oeste 14 Oeste 0 -- -- 87
2020-04-03 10:00:00 11.2 2 Oeste 6 Oeste 0 -- -- 84
2020-04-03 09:00:00 9.9 0 Calma 7 Este 0 -- -- 81
2020-04-03 08:00:00 8.9 0 Calma 5 Sudeste 0 -- -- 80
2020-04-03 07:00:00 8.9 3 Sudeste 7 Este 0 -- -- 78
2020-04-03 06:00:00 9.1 7 Este 9 Este 0 -- -- 76
2020-04-03 05:00:00 9.3 4 Sudeste 10 Este 0 -- -- 75
2020-04-03 04:00:00 9.1 5 Este 8 Este 0 -- -- 74
2020-04-03 03:00:00 9.3 4 Este 9 Este 0 -- -- 77
2020-04-03 02:00:00 9.3 5 Este 8 Nordeste 0 -- -- 78
2020-04-03 01:00:00 10.3 4 Este 12 Este 0 -- -- 72
2020-04-03 00:00:00 12.1 3 Este 7 Este 0 -- -- 84
2020-04-02 23:00:00 12.9 0 Calma 10 Oeste 0 -- -- 85
2020-04-02 22:00:00 13.4 4 Oeste 10 Oeste 0 -- -- 86
2020-04-02 21:00:00 13.8 4 Oeste 12 Oeste 0 -- -- 85
2020-04-02 20:00:00 14 2 Oeste 14 Oeste 0 -- -- 82
2020-04-02 19:00:00 14.8 9 Oeste 19 Oeste 0 -- -- 81
2020-04-02 18:00:00 16.2 12 Oeste 22 Oeste 0 -- -- 75
2020-04-02 17:00:00 17.1 8 Oeste 26 Oeste 0 -- -- 72
2020-04-02 16:00:00 18.2 13 Oeste 22 Oeste 0 -- -- 69
2020-04-02 15:00:00 17.2 12 Oeste 23 Oeste 0 -- -- 72
2020-04-02 14:00:00 17.1 11 Oeste 22 Oeste 0 -- -- 72
2020-04-02 13:00:00 17.4 14 Oeste 22 Oeste 0 -- -- 70
2020-04-02 12:00:00 17.1 14 Oeste 22 Oeste 0 -- -- 67
2020-04-02 11:00:00 16.6 6 Oeste 12 Oeste 0 -- -- 64
2020-04-02 10:00:00 14 5 Oeste 11 Este 0 -- -- 61
2020-04-02 09:00:00 8.5 5 Este 8 Este 0 -- -- 72
2020-04-02 08:00:00 7.6 4 Sudeste 9 Este 0 -- -- 73
2020-04-02 07:00:00 7.6 3 Sudoeste 9 Noroeste 0 -- -- 74
2020-04-02 06:00:00 7.6 3 Este 10 Este 0 -- -- 82
2020-04-02 05:00:00 7.7 5 Este 10 Este 0 -- -- 84
2020-04-02 04:00:00 8.4 5 Este 10 Este 0 -- -- 88
2020-04-02 03:00:00 8.8 4 Este 9 Este 0 -- -- 85
2020-04-02 02:00:00 9.9 5 Este 9 Este 0 -- -- 81
2020-04-02 01:00:00 11.2 5 Este 8 Este 0 -- -- 81
2020-04-02 00:00:00 12.6 4 Este 6 Sudoeste 0 -- -- 80
2020-04-01 23:00:00 13 2 Este 7 Oeste 0 -- -- 80
2020-04-01 22:00:00 13.7 3 Oeste 8 Oeste 0 -- -- 85
2020-04-01 21:00:00 13.8 5 Oeste 11 Oeste 0 -- -- 84
2020-04-01 20:00:00 14.2 6 Noroeste 10 Oeste 0 -- -- 82
2020-04-01 19:00:00 14.5 5 Oeste 13 Oeste 0 -- -- 80
2020-04-01 18:00:00 15.1 8 Oeste 22 Oeste 0 -- -- 77
2020-04-01 17:00:00 16.5 11 Oeste 27 Oeste 0 -- -- 71
2020-04-01 16:00:00 17.7 14 Oeste 23 Noroeste 0 -- -- 68
2020-04-01 15:00:00 17.5 12 Oeste 23 Oeste 0 -- -- 68
2020-04-01 14:00:00 17.5 13 Oeste 22 Oeste 0 -- -- 68
2020-04-01 13:00:00 16.8 13 Oeste 23 Oeste 0 -- -- 68
2020-04-01 12:00:00 17.3 13 Noroeste 19 Oeste 0 -- -- 65
2020-04-01 11:00:00 16.3 8 Noroeste 13 Oeste 0 -- -- 59
2020-04-01 10:00:00 12.7 4 Este 8 Este 0 -- -- 65
2020-04-01 09:00:00 7 0 Calma 5 Este 0 -- -- 76
2020-04-01 08:00:00 6 4 Este 7 Este 0 -- -- 75
2020-04-01 07:00:00 6.3 4 Este 10 Este 0 -- -- 77
2020-04-01 06:00:00 7 3 Sudeste 10 Este 0 -- -- 78
2020-04-01 05:00:00 7.1 5 Este 10 Este 0 -- -- 77
2020-04-01 04:00:00 7.7 6 Este 9 Este 0 -- -- 81
2020-04-01 03:00:00 8.4 3 Sudeste 6 Este 0 -- -- 77
2020-04-01 02:00:00 9.4 6 Este 10 Este 0 -- -- 75
2020-04-01 01:00:00 10.7 4 Este 7 Este 0 -- -- 81
2020-04-01 00:00:00 10.2 4 Este 6 Este 0 -- -- 82
2020-03-31 23:00:00 11.3 2 Nordeste 6 Norte 0 -- -- 80
2020-03-31 22:00:00 12.6 2 Este 9 Oeste 0 -- -- 85
2020-03-31 21:00:00 14.1 7 Oeste 12 Oeste 0 -- -- 78
2020-03-31 20:00:00 15.7 5 Oeste 22 Oeste 0 -- -- 72
2020-03-31 19:00:00 17 11 Oeste 20 Oeste 0 -- -- 66
2020-03-31 18:00:00 17.3 10 Oeste 24 Oeste 0 -- -- 67
2020-03-31 17:00:00 17.5 14 Oeste 26 Oeste 0 -- -- 65
2020-03-31 16:00:00 17.3 14 Oeste 27 Oeste 0 -- -- 64
2020-03-31 15:00:00 17.5 14 Oeste 32 Oeste 0 -- -- 63
2020-03-31 14:00:00 17.3 13 Oeste 26 Oeste 0 -- -- 63
2020-03-31 13:00:00 17.1 13 Oeste 26 Oeste 0 -- -- 61
2020-03-31 12:00:00 17 13 Oeste 20 Sur 0 -- -- 63
2020-03-31 11:00:00 16.5 5 Oeste 15 Oeste 0 -- -- 59
2020-03-31 10:00:00 13.3 8 Este 11 Este 0 -- -- 50
2020-03-31 09:00:00 8.6 6 Este 9 Este 0 -- -- 83
2020-03-31 08:00:00 8.5 4 Este 9 Este 0 -- -- 86
2020-03-31 07:00:00 9.6 5 Este 8 Este 0 -- -- 87
2020-03-31 06:00:00 11.4 4 Este 7 Nordeste 0 -- -- 87
2020-03-31 05:00:00 11.8 4 Oeste 8 Sudoeste 0 -- -- 86
2020-03-31 04:00:00 12 0 Calma 5 Este 0 -- -- 85
2020-03-31 03:00:00 12.2 0 Calma 5 Norte 0 -- -- 85
2020-03-31 02:00:00 12.3 0 Calma 4 Este 0 -- -- 86
2020-03-31 01:00:00 12 3 Este 6 Este 0 -- -- 87
2020-03-31 00:00:00 11.4 0 Calma 7 Nordeste 0 -- -- 87
2020-03-30 23:00:00 11.7 0 Calma 7 Este 0 -- -- 87
2020-03-30 22:00:00 12.6 2 Oeste 8 Oeste 0 -- -- 84
2020-03-30 21:00:00 13.5 2 Oeste 17 Noroeste 0 -- -- 81
2020-03-30 20:00:00 14.7 11 Oeste 20 Oeste 0 -- -- 79
2020-03-30 19:00:00 15.5 12 Oeste 26 Oeste 0 -- -- 78
2020-03-30 18:00:00 16 15 Oeste 27 Oeste 0 -- -- 73
2020-03-30 17:00:00 16 14 Oeste 27 Oeste 0 -- -- 79
2020-03-30 16:00:00 15.2 14 Oeste 25 Oeste 0 -- -- 83
2020-03-30 15:00:00 15.2 15 Oeste 23 Oeste 0 -- -- 82
2020-03-30 14:00:00 15.2 14 Oeste 23 Noroeste 0 -- -- 82
2020-03-30 13:00:00 14.9 8 Oeste 17 Oeste 0 -- -- 83
2020-03-30 12:00:00 15.2 8 Oeste 16 Oeste 0 -- -- 80
2020-03-30 11:00:00 14.7 6 Oeste 14 Oeste 0 -- -- 81
2020-03-30 10:00:00 12.3 0 Calma 6 Este 0 -- -- 94
2020-03-30 09:00:00 9.2 0 Calma 9 Este 0 -- -- 98
2020-03-30 08:00:00 8.4 6 Este 10 Este 0 -- -- 97
2020-03-30 07:00:00 7.5 0 Calma 6 Este 0 -- -- 93
2020-03-30 06:00:00 8 3 Este 9 Oeste 0 -- -- 91
2020-03-30 05:00:00 7.7 2 Este 7 Este 0 -- -- 91
2020-03-30 04:00:00 7.9 2 Sudeste 6 Este 0 -- -- 91
2020-03-30 03:00:00 8.6 3 Este 5 Este 0 -- -- 88
2020-03-30 02:00:00 10.4 2 Sudeste 8 Sudeste 0 -- -- 86
2020-03-30 01:00:00 11.3 2 Sudeste 7 Sudoeste 0 -- -- 86
2020-03-30 00:00:00 11.6 3 Noroeste 6 Sudeste 0 -- -- 87
2020-03-29 23:00:00 11.8 0 Calma 9 Oeste 0 -- -- 87
2020-03-29 22:00:00 12.2 3 Oeste 9 Oeste 0 -- -- 87
2020-03-29 21:00:00 12.6 6 Oeste 10 Oeste 0 -- -- 86
2020-03-29 20:00:00 13.3 2 Noroeste 9 Oeste 0 -- -- 84
2020-03-29 19:00:00 13.4 4 Oeste 13 Oeste 0 -- -- 84
2020-03-29 18:00:00 13.6 6 Oeste 14 Oeste 0 -- -- 83
2020-03-29 17:00:00 14.3 8 Noroeste 19 Oeste 0 -- -- 81
2020-03-29 16:00:00 15 9 Oeste 15 Noroeste 0 -- -- 76
2020-03-29 15:00:00 14.5 9 Oeste 20 Oeste 0 -- -- 76
2020-03-29 14:00:00 15.3 12 Oeste 23 Oeste 0 -- -- 73
2020-03-29 13:00:00 16.3 13 Oeste 23 Oeste 0 -- -- 67
2020-03-29 12:00:00 15.8 10 Oeste 21 Oeste 0 -- -- 66
2020-03-29 11:00:00 14.9 7 Oeste 13 Oeste 0 -- -- 60
2020-03-29 10:00:00 11.9 4 Este 8 Nordeste 0 -- -- 67
2020-03-29 09:00:00 6 3 Este 9 Este 0 -- -- 85
2020-03-29 08:00:00 5.9 5 Este 11 Este 0 -- -- 85
2020-03-29 07:00:00 5.8 6 Este 9 Este 0 -- -- 83
2020-03-29 06:00:00 6.2 6 Este 9 Este 0 -- -- 85
2020-03-29 05:00:00 6.2 5 Este 8 Este 0 -- -- 88
2020-03-29 04:00:00 6.6 3 Este 8 Este 0 -- -- 88
2020-03-29 00:00:00 7.5 7 Este 9 Este 0 -- -- 84
2020-03-28 23:00:00 7.9 6 Este 9 Este 0 -- -- 81
2020-03-28 22:00:00 8.7 5 Este 8 Este 0 -- -- 81
2020-03-28 21:00:00 10.2 4 Este 6 Este 0 -- -- 80
2020-03-28 20:00:00 12.6 3 Oeste 15 Oeste 0 -- -- 73
2020-03-28 19:00:00 14.2 9 Oeste 21 Oeste 0 -- -- 68
2020-03-28 18:00:00 14.8 10 Oeste 24 Oeste 0 -- -- 64
2020-03-28 17:00:00 15.2 12 Oeste 23 Oeste 0 -- -- 63
2020-03-28 16:00:00 14.3 12 Oeste 23 Oeste 0 -- -- 68
2020-03-28 15:00:00 14.4 12 Oeste 32 Oeste 0 -- -- 70
2020-03-28 14:00:00 16.4 12 Oeste 28 Oeste 0 -- -- 60
2020-03-28 13:00:00 15.7 12 Oeste 30 Oeste 0 -- -- 61
2020-03-28 12:00:00 15.2 13 Oeste 22 Oeste 0 -- -- 61
2020-03-28 11:00:00 15.3 10 Oeste 21 Oeste 0 -- -- 59
2020-03-28 10:00:00 14.4 8 Oeste 14 Oeste 0 -- -- 55
2020-03-28 09:00:00 11.1 3 Este 9 Este 0 -- -- 65
2020-03-28 08:00:00 4.9 6 Este 11 Este 0 -- -- 87
2020-03-28 07:00:00 4.5 6 Este 9 Este 0 -- -- 87
2020-03-28 06:00:00 4.7 8 Este 11 Este 0 -- -- 88
2020-03-28 05:00:00 5.4 5 Este 9 Nordeste 0 -- -- 83
2020-03-28 04:00:00 5.5 5 Este 11 Este 0 -- -- 83
2020-03-28 03:00:00 6.7 4 Este 14 Sur 0 -- -- 80
2020-03-28 02:00:00 7.6 3 Sudeste 10 Este 0 -- -- 81
2020-03-28 01:00:00 7.4 4 Nordeste 10 Nordeste 0 -- -- 79
2020-03-28 00:00:00 8.3 5 Este 11 Sudeste 0 -- -- 78
2020-03-27 23:00:00 8.4 7 Este 12 Este 0 -- -- 75
2020-03-27 22:00:00 8.9 5 Este 11 Nordeste 0 -- -- 80
2020-03-27 21:00:00 10.3 4 Este 11 Este 0 -- -- 74
2020-03-27 20:00:00 12.1 6 Oeste 15 Noroeste 0 -- -- 63
2020-03-27 19:00:00 14.2 8 Oeste 22 Oeste 0 -- -- 67
2020-03-27 18:00:00 14.1 8 Sudoeste 19 Oeste 0 -- -- 69
2020-03-27 17:00:00 14.5 10 Oeste 37 Oeste 0 -- -- 69
2020-03-27 16:00:00 14.4 14 Oeste 36 Oeste 0 -- -- 73
2020-03-27 15:00:00 14.1 23 Oeste 36 Oeste 0 -- -- 70
2020-03-27 14:00:00 14.2 23 Oeste 35 Sudoeste 0 -- -- 69
2020-03-27 13:00:00 14.2 18 Oeste 31 Oeste 0 -- -- 76
2020-03-27 12:00:00 12.8 17 Oeste 25 Oeste 0 -- -- 84
2020-03-27 11:00:00 12.5 13 Oeste 26 Oeste 0 -- -- 82
2020-03-27 10:00:00 12.7 4 Sudoeste 9 Sur 0 -- -- 75
2020-03-27 09:00:00 11.2 2 Este 7 Este 0 -- -- 77
2020-03-27 08:00:00 7.6 3 Este 7 Este 0 -- -- 90
2020-03-27 07:00:00 8 4 Este 8 Este 0 -- -- 88
2020-03-27 06:00:00 8.7 4 Este 6 Este 0 -- -- 87
2020-03-27 05:00:00 9.6 3 Este 5 Este 0 -- -- 87
2020-03-27 04:00:00 9.4 2 Este 6 Este 0 -- -- 86
2020-03-27 03:00:00 9.7 3 Nordeste 7 Sudeste 0 -- -- 85
2020-03-27 02:00:00 9.9 2 Este 5 Este 0 -- -- 83
2020-03-27 01:00:00 9.7 2 Este 6 Este 0 -- -- 85
2020-03-27 00:00:00 9.1 4 Este 7 Este 0 -- -- 85
2020-03-26 23:00:00 9.5 4 Este 6 Este 0 -- -- 85
2020-03-26 22:00:00 9.2 5 Este 8 Este 0 -- -- 84
2020-03-26 21:00:00 10.5 6 Este 9 Este 0 -- -- 79
2020-03-26 20:00:00 12 2 Noroeste 5 Noroeste 0 -- -- 70
2020-03-26 19:00:00 12.2 2 Norte 9 Norte 0 -- -- 70
2020-03-26 18:00:00 11.8 6 Nordeste 11 Nordeste 0 -- -- 72
2020-03-26 17:00:00 12.1 6 Oeste 15 Oeste 0 -- -- 72
2020-03-26 16:00:00 13.1 9 Oeste 22 Oeste 0 -- -- 77
2020-03-26 15:00:00 14.1 11 Oeste 19 Oeste 0 -- -- 72
2020-03-26 14:00:00 14.1 12 Oeste 18 Oeste 0 -- -- 75
2020-03-26 13:00:00 13 6 Este 13 Sudeste 0 -- -- 74
2020-03-26 12:00:00 12.2 4 Sur 8 Sur 0.2 -- -- 82
2020-03-26 11:00:00 12.6 0 Calma 6 Este 0 -- -- 70
2020-03-26 10:00:00 12.6 0 Calma 10 Nordeste 0 -- -- 72
2020-03-26 09:00:00 12.5 2 Norte 9 Este 0 -- -- 73
2020-03-26 08:00:00 7.5 4 Este 8 Este 0 -- -- 85
2020-03-26 07:00:00 8 5 Este 10 Sudeste 0 -- -- 80
2020-03-26 06:00:00 10 6 Sudeste 15 Sudeste 0 -- -- 75
2020-03-26 05:00:00 10.4 6 Sudeste 21 Sur 0 -- -- 77
2020-03-26 04:00:00 10.3 12 Este 21 Sudeste 0 -- -- 80
2020-03-26 03:00:00 10.4 5 Este 31 Este 0 -- -- 77
2020-03-26 02:00:00 10.5 14 Sudeste 31 Sudeste 0 -- -- 80
2020-03-26 01:00:00 10.7 17 Este 30 Este 0 -- -- 76
2020-03-26 00:00:00 10.5 18 Este 32 Sudeste 0 -- -- 78
2020-03-25 23:00:00 10.7 21 Este 32 Este 0 -- -- 73
2020-03-25 22:00:00 10.6 13 Este 24 Este 0 -- -- 77
2020-03-25 21:00:00 10.5 8 Este 21 Este 0 -- -- 78
2020-03-25 20:00:00 10.6 12 Este 26 Este 0 -- -- 78
2020-03-25 19:00:00 11.1 12 Este 20 Este 0.2 -- -- 83
2020-03-25 18:00:00 12 10 Este 19 Sudeste 0 -- -- 82
2020-03-25 17:00:00 11.9 6 Este 13 Este 0.2 -- -- 84
2020-03-25 16:00:00 12.5 6 Oeste 13 Oeste 0 -- -- 77
2020-03-25 15:00:00 13.2 5 Norte 16 Oeste 0.2 -- -- 76
2020-03-25 14:00:00 13.8 9 Oeste 20 Oeste 0 -- -- 72
2020-03-25 13:00:00 14.2 2 Sur 13 Oeste 0 -- -- 65
2020-03-25 12:00:00 13.8 4 Noroeste 15 Oeste 0 -- -- 66
2020-03-25 11:00:00 13.3 8 Este 17 Sudeste 0 -- -- 60
2020-03-25 10:00:00 13.1 4 Este 21 Este 0 -- -- 56
2020-03-25 09:00:00 12.3 13 Este 23 Este 0 -- -- 57
2020-03-25 08:00:00 11.2 14 Este 24 Este 0 -- -- 63
2020-03-25 07:00:00 10.3 0 Calma 7 Este 0 -- -- 78
2020-03-25 06:00:00 10.3 0 Calma 6 Este 0 -- -- 80
2020-03-25 05:00:00 10.3 0 Calma 7 Nordeste 0 -- -- 80
2020-03-25 04:00:00 10.4 2 Este 21 Sudeste 0 -- -- 77
2020-03-25 03:00:00 10.3 13 Sudeste 23 Este 0 -- -- 77
2020-03-25 02:00:00 8.5 5 Sudeste 10 Este 0 -- -- 83
2020-03-25 01:00:00 8.4 6 Este 9 Este 0 -- -- 83
2020-03-25 00:00:00 8.7 4 Este 6 Este 0 -- -- 81
2020-03-24 23:00:00 9.7 2 Este 11 Sudeste 0 -- -- 78
2020-03-24 22:00:00 11.2 6 Este 13 Sudeste 0 -- -- 74
2020-03-24 21:00:00 11.8 5 Este 16 Este 0 -- -- 72
2020-03-24 20:00:00 12.6 5 Nordeste 18 Este 0 -- -- 72
2020-03-24 19:00:00 15.3 9 Oeste 26 Oeste 0 -- -- 57
2020-03-24 18:00:00 16.3 15 Oeste 31 Oeste 0 -- -- 57
2020-03-24 17:00:00 16.6 17 Oeste 33 Oeste 0 -- -- 58
2020-03-24 16:00:00 16.8 15 Oeste 34 Oeste 0 -- -- 59
2020-03-24 15:00:00 15.9 20 Oeste 35 Oeste 0 -- -- 66
2020-03-24 14:00:00 15.4 16 Oeste 31 Oeste 0 -- -- 70
2020-03-24 13:00:00 14.3 19 Oeste 28 Oeste 0 -- -- 78
2020-03-24 12:00:00 15.6 13 Oeste 26 Oeste 0 -- -- 72
2020-03-24 11:00:00 15.3 11 Oeste 22 Oeste 0 -- -- 66
2020-03-24 10:00:00 15.3 3 Oeste 13 Este 0 -- -- 64
2020-03-24 09:00:00 11.3 4 Este 9 Nordeste 0 -- -- 79
2020-03-24 08:00:00 7.1 4 Este 10 Este 0 -- -- 88
2020-03-24 07:00:00 7.2 5 Este 10 Este 0 -- -- 86
2020-03-24 06:00:00 8.7 6 Este 9 Este 0 -- -- 85
2020-03-24 05:00:00 7.7 3 Este 9 Nordeste 0 -- -- 87
2020-03-24 04:00:00 7.4 3 Sudeste 11 Nordeste 0 -- -- 85
2020-03-24 03:00:00 7.9 6 Este 12 Nordeste 0 -- -- 84
2020-03-24 02:00:00 8.4 6 Este 9 Este 0 -- -- 82
2020-03-24 01:00:00 9.6 2 Sudeste 10 Este 0 -- -- 80
2020-03-24 00:00:00 10.2 5 Este 12 Este 0 -- -- 79
2020-03-23 23:00:00 9.9 5 Sudeste 12 Nordeste 0 -- -- 81
2020-03-23 22:00:00 9.5 2 Sur 9 Este 0 -- -- 82
2020-03-23 21:00:00 10.3 8 Este 16 Este 0 -- -- 71
2020-03-23 20:00:00 11.6 3 Nordeste 21 Sudeste 0 -- -- 74
2020-03-23 19:00:00 12.9 11 Sudeste 21 Sudeste 0 -- -- 68
2020-03-23 18:00:00 13.4 9 Este 25 Este 0 -- -- 65
2020-03-23 17:00:00 14.7 7 Noroeste 32 Este 0 -- -- 66
2020-03-23 16:00:00 15.4 12 Nordeste 42 Sudeste 0 -- -- 56
2020-03-23 15:00:00 15.5 25 Este 44 Sudeste 0 -- -- 57
2020-03-23 14:00:00 14.9 16 Sudeste 33 Sudeste 0 -- -- 63
2020-03-23 13:00:00 15 11 Oeste 32 Noroeste 0 -- -- 63
2020-03-23 12:00:00 14.7 15 Oeste 31 Oeste 0 -- -- 64
2020-03-23 11:00:00 14.8 7 Noroeste 25 Oeste 0 -- -- 64
2020-03-23 10:00:00 13.6 12 Noroeste 24 Nordeste 0 -- -- 67
2020-03-23 09:00:00 12.8 8 Nordeste 51 Norte 0 -- -- 61
2020-03-23 08:00:00 9.6 11 Nordeste 37 Norte 1.2 -- -- 78
2020-03-23 07:00:00 8.3 8 Sudeste 22 Norte 1.6 -- -- 85
2020-03-23 06:00:00 9.2 5 Oeste 32 Nordeste 0.4 -- -- 75
2020-03-23 05:00:00 10.1 14 Norte 50 Norte 0.2 -- -- 63
2020-03-23 04:00:00 9.8 14 Este 53 Oeste 0.2 -- -- 64
2020-03-23 03:00:00 8.7 6 Este 25 Sur 0.8 -- -- 76
2020-03-23 02:00:00 8.9 10 Noroeste 36 Oeste 0.6 -- -- 83
2020-03-23 01:00:00 9.9 13 Oeste 44 Oeste 0.8 -- -- 79
2020-03-23 00:00:00 9.8 14 Oeste 46 Norte 0 -- -- 69
2020-03-22 23:00:00 9.4 5 Sudeste 22 Sudoeste 0.6 -- -- 83
2020-03-22 22:00:00 10.3 7 Sudoeste 22 Sudoeste 0.4 -- -- 77
2020-03-22 21:00:00 10.6 11 Sur 32 Sudoeste 0 -- -- 75
2020-03-22 20:00:00 11.4 10 Sudoeste 28 Oeste 0 -- -- 68
2020-03-22 19:00:00 13 15 Oeste 33 Oeste 0 -- -- 64
2020-03-22 18:00:00 14.5 10 Noroeste 36 Norte 0 -- -- 49
2020-03-22 17:00:00 15.4 20 Oeste 47 Noroeste 0 -- -- 53
2020-03-22 16:00:00 15 29 Oeste 45 Oeste 0 -- -- 65
2020-03-22 15:00:00 13.5 12 Sudoeste 37 Sudoeste 0 -- -- 84
2020-03-22 14:00:00 12 24 Oeste 45 Oeste 0.4 -- -- 87
2020-03-22 13:00:00 14.2 35 Oeste 50 Oeste 0 -- -- 68
2020-03-22 12:00:00 14.9 23 Oeste 42 Oeste 0 -- -- 64
2020-03-22 11:00:00 16.1 11 Sudoeste 26 Oeste 0 -- -- 60
2020-03-22 10:00:00 14.8 9 Sudoeste 21 Oeste 0 -- -- 60
2020-03-22 09:00:00 11.1 3 Nordeste 9 Este 0 -- -- 74
2020-03-22 08:00:00 6.2 3 Este 11 Este 0 -- -- 86
2020-03-22 07:00:00 5.9 5 Este 9 Este 0 -- -- 85
2020-03-22 06:00:00 6.9 6 Este 10 Este 0 -- -- 83
2020-03-22 05:00:00 8 3 Este 6 Nordeste 0 -- -- 81
2020-03-22 04:00:00 9.5 0 Calma 3 Oeste 0 -- -- 77
2020-03-22 03:00:00 10.5 3 Oeste 9 Oeste 0 -- -- 76
2020-03-22 02:00:00 10.5 5 Oeste 9 Oeste 0 -- -- 75
2020-03-22 01:00:00 10.5 2 Oeste 11 Oeste 0 -- -- 74
2020-03-22 00:00:00 10.8 5 Oeste 10 Oeste 0 -- -- 76
2020-03-21 23:00:00 11.1 3 Oeste 11 Noroeste 0 -- -- 74
2020-03-21 22:00:00 11.3 6 Noroeste 12 Noroeste 0 -- -- 74
2020-03-21 21:00:00 11.6 5 Oeste 14 Oeste 0 -- -- 73
2020-03-21 20:00:00 11.9 9 Oeste 17 Oeste 0 -- -- 73
2020-03-21 19:00:00 12.3 9 Oeste 20 Oeste 0 -- -- 70
2020-03-21 18:00:00 13 12 Oeste 22 Oeste 0 -- -- 67
2020-03-21 17:00:00 13.5 14 Oeste 23 Oeste 0 -- -- 66
2020-03-21 16:00:00 14 10 Oeste 26 Oeste 0 -- -- 63
2020-03-21 15:00:00 14.5 15 Oeste 29 Oeste 0 -- -- 61
2020-03-21 14:00:00 13.7 10 Oeste 26 Este 0 -- -- 62
2020-03-21 13:00:00 14.6 16 Este 31 Este 0 -- -- 62
2020-03-21 12:00:00 14 16 Este 35 Este 0 -- -- 57
2020-03-21 11:00:00 13 19 Este 34 Sudeste 0 -- -- 61
2020-03-21 10:00:00 11.8 20 Este 37 Este 0 -- -- 69
2020-03-21 09:00:00 9.9 19 Este 40 Este 0 -- -- 73
2020-03-21 08:00:00 9.4 20 Este 38 Este 0 -- -- 73
2020-03-21 07:00:00 9.3 19 Este 37 Este 0 -- -- 75
2020-03-21 06:00:00 9.2 17 Este 30 Este 0 -- -- 76
2020-03-21 05:00:00 8.7 16 Este 28 Este 0 -- -- 80
2020-03-21 04:00:00 8.9 14 Este 34 Este 0 -- -- 80
2020-03-21 03:00:00 9.2 15 Este 31 Este 0 -- -- 80
2020-03-21 02:00:00 9.5 12 Este 25 Este 0 -- -- 79
2020-03-21 01:00:00 9.5 8 Este 22 Sudeste 0 -- -- 73
2020-03-21 00:00:00 9.5 9 Sudeste 21 Este 0 -- -- 77
2020-03-20 23:00:00 9.4 4 Nordeste 14 Sudeste 0 -- -- 84
2020-03-20 22:00:00 10.6 6 Sudeste 8 Sudeste 0 -- -- 84
2020-03-20 21:00:00 12.1 0 Calma 10 Oeste 0 -- -- 85
2020-03-20 20:00:00 13.2 6 Oeste 13 Oeste 0 -- -- 83
2020-03-20 19:00:00 13.9 5 Oeste 14 Sudeste 0 -- -- 78
2020-03-20 18:00:00 12.8 10 Sudeste 23 Sudeste 0 -- -- 79
2020-03-20 17:00:00 13.7 15 Este 35 Este 0 -- -- 78
2020-03-20 16:00:00 14.8 14 Este 28 Este 0 -- -- 73
2020-03-20 15:00:00 14.6 17 Sudeste 26 Sudeste 0 -- -- 70
2020-03-20 14:00:00 15.4 15 Este 41 Este 0 -- -- 65
2020-03-20 13:00:00 15.1 24 Este 52 Sudeste 0 -- -- 63
2020-03-20 12:00:00 15.4 27 Este 42 Este 0 -- -- 63
2020-03-20 11:00:00 14.2 20 Sudeste 36 Este 0 -- -- 73
2020-03-20 10:00:00 13.7 22 Este 37 Este 0 -- -- 75
2020-03-20 09:00:00 11.7 16 Este 31 Sudeste 0 -- -- 81
2020-03-20 08:00:00 11.1 14 Este 27 Este 0 -- -- 80
2020-03-20 07:00:00 9.7 6 Este 17 Sudeste 0 -- -- 86
2020-03-20 06:00:00 9.4 5 Este 15 Nordeste 0 -- -- 82
2020-03-20 05:00:00 9.2 5 Este 16 Sudeste 0 -- -- 83
2020-03-20 04:00:00 10.3 5 Este 17 Sudeste 0 -- -- 80
2020-03-20 03:00:00 10.4 8 Este 18 Sudeste 0 -- -- 86
2020-03-20 02:00:00 10.4 6 Sudeste 14 Sudeste 0 -- -- 85
2020-03-20 01:00:00 10.9 3 Nordeste 31 Este 0 -- -- 81
2020-03-20 00:00:00 12.4 16 Este 31 Este 0 -- -- 80
2020-03-19 23:00:00 11.8 10 Este 23 Sudeste 0 -- -- 80
2020-03-19 22:00:00 12.3 3 Nordeste 21 Sudeste 0 -- -- 78
2020-03-19 21:00:00 13 16 Sudeste 30 Sudeste 0 -- -- 73
2020-03-19 20:00:00 13.1 11 Sudeste 22 Este 0 -- -- 71
2020-03-19 19:00:00 14.5 3 Sudeste 22 Sudeste 0 -- -- 67
2020-03-19 18:00:00 15.2 6 Norte 33 Este 0 -- -- 67
2020-03-19 17:00:00 15.8 15 Este 38 Este 0 -- -- 60
2020-03-19 16:00:00 17 8 Sudoeste 31 Oeste 0 -- -- 63
2020-03-19 15:00:00 18 10 Sudoeste 33 Oeste 0 -- -- 59
2020-03-19 14:00:00 17.8 8 Oeste 27 Oeste 0 -- -- 58
2020-03-19 13:00:00 17.2 13 Oeste 31 Sudoeste 0 -- -- 57
2020-03-19 12:00:00 16.3 14 Oeste 28 Sudeste 0 -- -- 58
2020-03-19 11:00:00 15.3 12 Este 31 Sudeste 0 -- -- 59
2020-03-19 10:00:00 13.6 9 Sudoeste 42 Este 0 -- -- 66
2020-03-19 09:00:00 10.1 3 Norte 11 Este 0 -- -- 75
2020-03-19 08:00:00 8.5 8 Nordeste 18 Este 0 -- -- 77
2020-03-19 07:00:00 8.7 6 Este 23 Este 0 -- -- 80
2020-03-19 06:00:00 7.3 3 Nordeste 13 Este 0 -- -- 85
2020-03-19 05:00:00 6.4 5 Este 9 Este 0 -- -- 87
2020-03-19 04:00:00 6.7 3 Este 9 Este 0 -- -- 85
2020-03-19 03:00:00 7.3 4 Este 12 Nordeste 0 -- -- 81
2020-03-19 02:00:00 8.1 9 Nordeste 16 Este 0 -- -- 80
2020-03-19 01:00:00 7.6 4 Este 10 Este 0 -- -- 83
2020-03-19 00:00:00 8.3 4 Este 12 Nordeste 0 -- -- 82
2020-03-18 23:00:00 8.5 4 Este 11 Este 0 -- -- 82
2020-03-18 22:00:00 9.4 3 Este 14 Sudeste 0 -- -- 77
2020-03-18 21:00:00 10.7 7 Sudeste 21 Sudeste 0 -- -- 71
2020-03-18 20:00:00 11.7 0 Calma 19 Oeste 0 -- -- 75
2020-03-18 19:00:00 12.4 12 Oeste 23 Oeste 0 -- -- 74
2020-03-18 18:00:00 12.8 6 Sudoeste 27 Este 0 -- -- 69
2020-03-18 17:00:00 12.8 14 Este 25 Sudeste 0 -- -- 68
2020-03-18 16:00:00 14 11 Oeste 20 Oeste 0 -- -- 71
2020-03-18 15:00:00 14.3 10 Oeste 21 Oeste 0 -- -- 71
2020-03-18 14:00:00 14.7 10 Oeste 24 Oeste 0 -- -- 70
2020-03-18 13:00:00 14.3 13 Oeste 30 Este 0 -- -- 71
2020-03-18 12:00:00 14.2 19 Este 41 Este 0 -- -- 62
2020-03-18 11:00:00 13.7 20 Este 42 Sudeste 0 -- -- 58
2020-03-18 10:00:00 12.6 19 Este 42 Sudeste 0 -- -- 68
2020-03-18 09:00:00 9.7 15 Este 37 Este 0 -- -- 81
2020-03-18 08:00:00 9.1 10 Este 32 Este 0 -- -- 81
2020-03-18 07:00:00 8.4 10 Nordeste 31 Este 0 -- -- 80
2020-03-18 06:00:00 8.8 13 Este 26 Este 0 -- -- 89
2020-03-18 05:00:00 9 18 Este 35 Este 0 -- -- 88
2020-03-18 04:00:00 8.7 16 Este 31 Este 0 -- -- 87
2020-03-18 03:00:00 8.8 10 Este 35 Este 0 -- -- 83
2020-03-18 02:00:00 8.8 11 Nordeste 43 Este 0 -- -- 85
2020-03-18 01:00:00 9 17 Este 28 Este 0 -- -- 90
2020-03-18 00:00:00 9.5 13 Este 42 Este 0 -- -- 86
2020-03-17 23:00:00 9.2 19 Este 45 Sudeste 0 -- -- 89
2020-03-17 22:00:00 9.6 18 Este 39 Este 0 -- -- 87
2020-03-17 21:00:00 9.6 20 Este 41 Este 0 -- -- 90
2020-03-17 20:00:00 9.7 21 Este 44 Este 0 -- -- 90
2020-03-17 19:00:00 10 21 Este 50 Sudeste 0 -- -- 90
2020-03-17 18:00:00 10.7 25 Este 51 Sudeste 0 -- -- 91
2020-03-17 17:00:00 12.2 19 Este 42 Nordeste 0 -- -- 83
2020-03-17 16:00:00 12.2 19 Este 48 Este 0 -- -- 83
2020-03-17 15:00:00 13.4 26 Este 50 Este 0 -- -- 74
2020-03-17 14:00:00 13.4 24 Este 51 Este 0 -- -- 70
2020-03-17 13:00:00 12.9 19 Este 62 Este 0 -- -- 74
2020-03-17 12:00:00 13.9 28 Este 47 Este 0 -- -- 67
2020-03-17 11:00:00 12 28 Este 57 Este 0 -- -- 72
2020-03-17 10:00:00 10.8 26 Este 52 Sudeste 0 -- -- 76
2020-03-17 09:00:00 9.2 29 Este 53 Este 0 -- -- 82
2020-03-17 08:00:00 9.5 27 Este 56 Este 0 -- -- 80
2020-03-17 07:00:00 9.4 29 Este 54 Este 0 -- -- 81
2020-03-17 06:00:00 9.4 29 Este 57 Sudeste 0 -- -- 83
2020-03-17 05:00:00 9.1 32 Este 56 Este 0 -- -- 81
2020-03-17 04:00:00 9.6 25 Este 57 Este 0 -- -- 78
2020-03-17 03:00:00 9.5 32 Este 64 Este 0 -- -- 80
2020-03-17 02:00:00 9.7 33 Este 59 Este 0 -- -- 73
2020-03-17 01:00:00 9.7 30 Este 55 Este 0 -- -- 79
2020-03-17 00:00:00 9.9 30 Este 62 Este 0 -- -- 80
2020-03-16 23:00:00 10 30 Este 59 Este 0 -- -- 76
2020-03-16 22:00:00 10.3 27 Este 58 Este 0 -- -- 77
2020-03-16 21:00:00 10.6 31 Este 53 Este 0 -- -- 79
2020-03-16 20:00:00 10.7 26 Este 47 Sudeste 0 -- -- 81
2020-03-16 19:00:00 11.5 24 Este 52 Este 0 -- -- 78
2020-03-16 18:00:00 13.1 25 Este 47 Este 0 -- -- 72
2020-03-16 17:00:00 13.8 24 Este 62 Este 0 -- -- 69
2020-03-16 16:00:00 14.9 23 Este 49 Este 0 -- -- 67
2020-03-16 15:00:00 15.6 28 Este 54 Este 0 -- -- 66
2020-03-16 14:00:00 15.7 29 Este 60 Este 0 -- -- 55
2020-03-16 13:00:00 15 28 Este 57 Este 0 -- -- 61
2020-03-16 12:00:00 14.8 29 Este 53 Este 0 -- -- 58
2020-03-16 11:00:00 14.5 29 Este 65 Este 0 -- -- 60
2020-03-16 10:00:00 13.5 32 Este 57 Este 0 -- -- 61
2020-03-16 09:00:00 11.8 26 Este 66 Este 0 -- -- 66
2020-03-16 08:00:00 11.1 31 Este 59 Este 0 -- -- 61
2020-03-16 07:00:00 10.7 28 Este 57 Este 0 -- -- 68
2020-03-16 06:00:00 11.4 24 Este 47 Nordeste 0 -- -- 70
2020-03-16 05:00:00 11.4 24 Este 57 Este 0 -- -- 63
2020-03-16 04:00:00 11.4 26 Este 54 Nordeste 0 -- -- 60
2020-03-16 03:00:00 10.7 27 Este 51 Este 0 -- -- 74
2020-03-16 02:00:00 11.1 23 Este 47 Este 0 -- -- 66
2020-03-16 01:00:00 10.6 21 Este 42 Este 0 -- -- 72
2020-03-16 00:00:00 11.2 14 Este 38 Sudeste 0 -- -- 71
2020-03-15 23:00:00 11.3 16 Este 41 Este 0 -- -- 71
2020-03-15 22:00:00 11.5 20 Este 45 Este 0 -- -- 65
2020-03-15 21:00:00 11.4 26 Este 59 Este 0 -- -- 69
2020-03-15 20:00:00 11.4 26 Este 48 Este 0 -- -- 69
2020-03-15 19:00:00 11.9 28 Este 53 Este 0 -- -- 60
2020-03-15 18:00:00 12.4 29 Este 53 Este 0 -- -- 63
2020-03-15 17:00:00 13.1 20 Este 40 Este 0 -- -- 62
2020-03-15 16:00:00 13.1 6 Oeste 42 Este 0 -- -- 79
2020-03-15 15:00:00 13.3 20 Este 46 Este 0 -- -- 73
2020-03-15 14:00:00 12.9 7 Oeste 18 Noroeste 0.6 -- -- 83
2020-03-15 13:00:00 13.2 10 Noroeste 37 Oeste 0 -- -- 78
2020-03-15 12:00:00 13.1 13 Este 39 Sudeste 0 -- -- 65
2020-03-15 11:00:00 12.8 17 Sudeste 32 Este 0 -- -- 74
2020-03-15 10:00:00 12.3 7 Sudeste 20 Sudeste 0 -- -- 70
2020-03-15 09:00:00 11.7 7 Este 28 Este 0 -- -- 68
2020-03-15 08:00:00 10.3 6 Este 22 Este 0 -- -- 74
2020-03-15 07:00:00 9.5 12 Sudeste 23 Sudeste 0 -- -- 83
2020-03-15 06:00:00 8.8 4 Este 12 Sudeste 0 -- -- 80
2020-03-15 05:00:00 9.4 6 Este 12 Sudeste 0 -- -- 78
2020-03-15 04:00:00 9.9 11 Sudeste 17 Este 0 -- -- 81
2020-03-15 03:00:00 10 12 Sudeste 21 Sudeste 0 -- -- 84
2020-03-15 02:00:00 10.6 8 Este 21 Este 0 -- -- 67
2020-03-15 01:00:00 10.8 3 Sudeste 14 Sudeste 0 -- -- 69
2020-03-15 00:00:00 10.8 6 Sudeste 21 Este 0 -- -- 74
2020-03-14 23:00:00 10.7 7 Este 26 Este 0 -- -- 71
2020-03-14 22:00:00 11.1 12 Sudeste 24 Sudeste 0 -- -- 69
2020-03-14 21:00:00 11.2 15 Sudeste 26 Sudeste 0 -- -- 67
2020-03-14 20:00:00 11.7 5 Sudeste 25 Este 0 -- -- 68
2020-03-14 19:00:00 12.3 14 Este 25 Este 0 -- -- 78
2020-03-14 18:00:00 13.4 14 Este 31 Sudeste 0 -- -- 73
2020-03-14 17:00:00 14.1 16 Este 33 Este 0 -- -- 74
2020-03-14 16:00:00 14.3 17 Este 34 Este 0 -- -- 71
2020-03-14 15:00:00 14.8 20 Este 35 Sudeste 0 -- -- 71
2020-03-14 14:00:00 15.1 22 Este 35 Este 0 -- -- 70
2020-03-14 13:00:00 15.1 22 Este 46 Este 0 -- -- 70
2020-03-14 12:00:00 15.3 22 Este 40 Este 0 -- -- 68
2020-03-14 11:00:00 14.3 22 Este 41 Este 0 -- -- 67
2020-03-14 10:00:00 13.6 24 Este 46 Este 0 -- -- 74
2020-03-14 09:00:00 12.7 18 Este 37 Sudeste 0 -- -- 73
2020-03-14 08:00:00 11.5 20 Este 36 Sudeste 0 -- -- 78
2020-03-14 07:00:00 11.3 21 Este 37 Este 0 -- -- 80
2020-03-14 06:00:00 11.1 20 Este 38 Sudeste 0 -- -- 81
2020-03-14 05:00:00 12.1 21 Este 40 Este 0 -- -- 76
2020-03-14 04:00:00 11.8 22 Este 36 Sudeste 0 -- -- 79
2020-03-14 03:00:00 11.7 24 Este 39 Sudeste 0 -- -- 80
2020-03-14 02:00:00 12.2 21 Sudeste 39 Este 0 -- -- 79
2020-03-14 01:00:00 12.7 22 Sudeste 34 Este 0 -- -- 71
2020-03-14 00:00:00 12.5 18 Sudeste 36 Sudeste 0 -- -- 72
2020-03-13 23:00:00 12.3 21 Sudeste 44 Sudeste 0 -- -- 78
2020-03-13 22:00:00 12.2 22 Este 37 Este 0 -- -- 80
2020-03-13 21:00:00 12.6 21 Este 36 Sudeste 0 -- -- 78
2020-03-13 20:00:00 13.4 20 Este 40 Este 0 -- -- 71
2020-03-13 19:00:00 14.5 20 Sudeste 36 Sudeste 0 -- -- 68
2020-03-13 18:00:00 18.2 18 Este 28 Este 0 -- -- 53
2020-03-13 17:00:00 21.4 8 Oeste 18 Oeste 0 -- -- 30
2020-03-13 16:00:00 21.3 9 Oeste 21 Oeste 0 -- -- 36
2020-03-13 15:00:00 22 10 Oeste 22 Oeste 0 -- -- 36
2020-03-13 14:00:00 22.7 10 Oeste 23 Norte 0 -- -- 45
2020-03-13 13:00:00 22.5 16 Este 25 Este 0 -- -- 20
2020-03-13 12:00:00 22.2 15 Este 26 Este 0 -- -- 19
2020-03-13 11:00:00 21.4 18 Este 28 Este 0 -- -- 16
2020-03-13 10:00:00 20.7 17 Este 30 Este 0 -- -- 16
2020-03-13 09:00:00 19 13 Sudeste 20 Sudeste 0 -- -- 17
2020-03-13 08:00:00 17.8 12 Sudeste 21 Sudeste 0 -- -- 16
2020-03-13 07:00:00 17.4 8 Sudeste 13 Sudeste 0 -- -- 16
2020-03-13 06:00:00 18 11 Sudeste 15 Sudeste 0 -- -- 17
2020-03-13 05:00:00 17.8 11 Sudeste 19 Sudeste 0 -- -- 17
2020-03-13 04:00:00 18.5 11 Sudeste 17 Sudeste 0 -- -- 17
2020-03-13 03:00:00 17.8 6 Sudeste 12 Sudeste 0 -- -- 18
2020-03-13 02:00:00 17.5 6 Sudeste 10 Sudeste 0 -- -- 18
2020-03-13 01:00:00 17 6 Sudeste 10 Sudeste 0 -- -- 19
2020-03-13 00:00:00 16.8 6 Sudeste 11 Este 0 -- -- 20
2020-03-12 23:00:00 17.8 5 Sudeste 12 Sudeste 0 -- -- 19
2020-03-12 22:00:00 18.1 4 Sudeste 14 Este 0 -- -- 19
2020-03-12 21:00:00 17 6 Sudeste 10 Este 0 -- -- 23
2020-03-12 20:00:00 18.4 7 Este 10 Este 0 -- -- 25
2020-03-12 19:00:00 22.3 4 Sudoeste 13 Oeste 0 -- -- 19
2020-03-12 18:00:00 23.4 9 Oeste 18 Oeste 0 -- -- 18
2020-03-12 17:00:00 24.7 9 Oeste 18 Oeste 0 -- -- 19
2020-03-12 16:00:00 24.4 10 Oeste 22 Oeste 0 -- -- 18
2020-03-12 15:00:00 24.8 13 Oeste 22 Oeste 0 -- -- 18
2020-03-12 14:00:00 25.4 14 Oeste 21 Oeste 0 -- -- 19
2020-03-12 13:00:00 25.2 11 Este 26 Este 0 -- -- 14
2020-03-12 12:00:00 24.8 15 Este 25 Este 0 -- -- 19
2020-03-12 11:00:00 24.2 14 Este 24 Este 0 -- -- 17
2020-03-12 10:00:00 22.9 11 Sudeste 22 Este 0 -- -- 17
2020-03-12 09:00:00 20.8 10 Sudeste 17 Este 0 -- -- 16
2020-03-12 08:00:00 17.4 9 Sudeste 14 Sudeste 0 -- -- 17
2020-03-12 07:00:00 17.3 8 Sudeste 19 Sudeste 0 -- -- 16
2020-03-12 06:00:00 17.5 13 Sudeste 24 Este 0 -- -- 16
2020-03-12 05:00:00 16.7 13 Sudeste 21 Sudeste 0 -- -- 18
2020-03-12 04:00:00 15.2 6 Sudeste 13 Sudeste 0 -- -- 19
2020-03-12 03:00:00 16 5 Sudeste 17 Este 0 -- -- 18
2020-03-12 02:00:00 15.5 9 Sudeste 21 Este 0 -- -- 20
2020-03-12 01:00:00 14.6 7 Sudeste 18 Sudeste 0 -- -- 23
2020-03-12 00:00:00 16.3 12 Sudeste 20 Este 0 -- -- 23
2020-03-11 23:00:00 15.5 11 Este 17 Sudeste 0 -- -- 24
2020-03-11 22:00:00 15.2 8 Este 15 Este 0 -- -- 25
2020-03-11 21:00:00 16.4 8 Este 11 Este 0 -- -- 23
2020-03-11 20:00:00 18.7 4 Este 8 Este 0 -- -- 26
2020-03-11 19:00:00 22.8 4 Oeste 13 Oeste 0 -- -- 28
2020-03-11 18:00:00 23.8 9 Oeste 18 Oeste 0 -- -- 21
2020-03-11 17:00:00 24.3 12 Oeste 24 Oeste 0 -- -- 23
2020-03-11 16:00:00 24.5 13 Oeste 29 Oeste 0 -- -- 21
2020-03-11 15:00:00 25 14 Oeste 21 Oeste 0 -- -- 20
2020-03-11 14:00:00 23.7 7 Oeste 21 Oeste 0 -- -- 18
2020-03-11 13:00:00 24.4 13 Oeste 23 Noroeste 0 -- -- 15
2020-03-11 12:00:00 25.5 12 Oeste 20 Oeste 0 -- -- 14
2020-03-11 11:00:00 24.1 6 Oeste 14 Oeste 0 -- -- 19
2020-03-11 10:00:00 23.2 4 Nordeste 9 Este 0 -- -- 14
2020-03-11 09:00:00 17.4 6 Este 13 Este 0 -- -- 23
2020-03-11 08:00:00 15.3 7 Este 13 Sudeste 0 -- -- 18
2020-03-11 07:00:00 17.3 6 Este 19 Sudeste 0 -- -- 15
2020-03-11 06:00:00 17.9 12 Sudeste 23 Sudeste 0 -- -- 13
2020-03-11 05:00:00 16.8 5 Sudeste 25 Sudeste 0 -- -- 9
2020-03-11 04:00:00 17.2 14 Sudeste 25 Sudeste 0 -- -- 8
2020-03-11 03:00:00 18.9 11 Este 25 Este 0 -- -- 7
2020-03-11 02:00:00 18.3 12 Este 24 Sudeste 0 -- -- 7
2020-03-11 01:00:00 16.7 4 Este 19 Sudeste 0 -- -- 12
2020-03-11 00:00:00 18.1 9 Este 27 Este 0 -- -- 17
2020-03-10 23:00:00 18.4 16 Este 27 Este 0 -- -- 16
2020-03-10 22:00:00 18.4 9 Este 29 Este 0 -- -- 20
2020-03-10 21:00:00 18.4 13 Este 24 Sudeste 0 -- -- 12
2020-03-10 20:00:00 18.7 9 Sudeste 18 Este 0 -- -- 14
2020-03-10 19:00:00 22 4 Oeste 13 Oeste 0 -- -- 36
2020-03-10 18:00:00 22.5 7 Sudoeste 21 Oeste 0 -- -- 21
2020-03-10 17:00:00 24 10 Oeste 23 Oeste 0 -- -- 23
2020-03-10 16:00:00 24.5 15 Oeste 26 Sudoeste 0 -- -- 21
2020-03-10 15:00:00 25.6 13 Oeste 23 Oeste 0 -- -- 19
2020-03-10 14:00:00 25 8 Nordeste 24 Este 0 -- -- 18
2020-03-10 13:00:00 24.8 12 Este 28 Sudeste 0 -- -- 18
2020-03-10 12:00:00 24.1 17 Este 30 Sudeste 0 -- -- 18
2020-03-10 11:00:00 24 15 Sudeste 26 Este 0 -- -- 17
2020-03-10 10:00:00 22.4 15 Este 24 Este 0 -- -- 17
2020-03-10 09:00:00 20.2 11 Sudeste 26 Este 0 -- -- 18
2020-03-10 08:00:00 17.4 14 Este 28 Este 0 -- -- 18
2020-03-10 07:00:00 17.1 16 Sudeste 35 Este 0 -- -- 22
2020-03-10 06:00:00 16.8 17 Este 35 Este 0 -- -- 21
2020-03-10 05:00:00 16.9 17 Este 28 Este 0 -- -- 22
2020-03-10 04:00:00 17.5 21 Este 41 Este 0 -- -- 21
2020-03-10 03:00:00 17.3 18 Este 47 Este 0 -- -- 22
2020-03-10 02:00:00 17.9 25 Este 47 Este 0 -- -- 24
2020-03-10 01:00:00 18 22 Este 45 Sudeste 0 -- -- 24
2020-03-10 00:00:00 18.1 17 Este 42 Este 0 -- -- 22
2020-03-09 23:00:00 18.1 18 Este 42 Este 0 -- -- 22
2020-03-09 22:00:00 18.8 25 Este 46 Este 0 -- -- 24
2020-03-09 21:00:00 19 14 Este 38 Este 0 -- -- 22
2020-03-09 20:00:00 19.1 14 Este 29 Este 0 -- -- 21
2020-03-09 19:00:00 20.6 11 Este 30 Este 0 -- -- 21
2020-03-09 18:00:00 22 19 Este 34 Este 0 -- -- 19
2020-03-09 17:00:00 23 21 Este 35 Este 0 -- -- 19
2020-03-09 16:00:00 23.5 22 Este 45 Sudeste 0 -- -- 21
2020-03-09 15:00:00 22.7 26 Este 45 Este 0 -- -- 21
2020-03-09 14:00:00 22.8 27 Este 45 Este 0 -- -- 19
2020-03-09 13:00:00 23.1 26 Este 43 Este 0 -- -- 21
2020-03-09 12:00:00 22.1 25 Este 46 Este 0 -- -- 19
2020-03-09 11:00:00 21.4 28 Este 43 Sudeste 0 -- -- 20
2020-03-09 10:00:00 20.3 27 Este 49 Sudeste 0 -- -- 22
2020-03-09 09:00:00 18.3 28 Este 46 Sudeste 0 -- -- 20
2020-03-09 08:00:00 18 14 Sudeste 27 Este 0 -- -- 21
2020-03-09 07:00:00 17.9 10 Este 32 Este 0 -- -- 18
2020-03-09 06:00:00 17.5 10 Sudeste 36 Sudeste 0 -- -- 21
2020-03-09 05:00:00 18.9 20 Este 47 Este 0 -- -- 19
2020-03-09 04:00:00 18.2 22 Este 40 Este 0 -- -- 21
2020-03-09 03:00:00 18.1 25 Este 41 Este 0 -- -- 20
2020-03-09 02:00:00 18.6 27 Este 44 Este 0 -- -- 21
2020-03-09 01:00:00 19.7 23 Este 61 Este 0 -- -- 19
2020-03-09 00:00:00 20 28 Este 55 Este 0 -- -- 18
2020-03-08 23:00:00 20.1 28 Este 55 Este 0 -- -- 20
2020-03-08 22:00:00 20.2 21 Este 42 Sudeste 0 -- -- 19
2020-03-08 21:00:00 20.3 19 Este 41 Este 0 -- -- 19
2020-03-08 20:00:00 20.2 12 Este 39 Este 0 -- -- 20
2020-03-08 19:00:00 20.7 21 Este 40 Este 0 -- -- 21
2020-03-08 18:00:00 21.5 24 Este 40 Este 0 -- -- 25
2020-03-08 17:00:00 23.6 17 Sudeste 31 Este 0 -- -- 16
2020-03-08 16:00:00 23.7 23 Este 52 Sudeste 0 -- -- 18
2020-03-08 15:00:00 23.2 30 Este 46 Este 0 -- -- 21
2020-03-08 14:00:00 23 31 Este 52 Este 0 -- -- 23
2020-03-08 13:00:00 23 29 Este 51 Este 0 -- -- 25
2020-03-08 12:00:00 23.7 25 Este 39 Este 0 -- -- 22
2020-03-08 11:00:00 23 18 Este 31 Este 0 -- -- 23
2020-03-08 10:00:00 21.8 17 Sudeste 25 Este 0 -- -- 25
2020-03-08 09:00:00 17.6 9 Sudeste 20 Sudeste 0 -- -- 28
2020-03-08 08:00:00 13.5 9 Sudeste 16 Sudeste 0 -- -- 33
2020-03-08 07:00:00 15.2 13 Sudeste 24 Sudeste 0 -- -- 28
2020-03-08 06:00:00 15.7 14 Sudeste 25 Sudeste 0 -- -- 28
2020-03-08 05:00:00 14.8 12 Sudeste 23 Sudeste 0 -- -- 25
2020-03-08 04:00:00 14.2 14 Sudeste 27 Este 0 -- -- 30
2020-03-08 03:00:00 9.5 11 Sudeste 27 Sudeste 0 -- -- 67
2020-03-08 02:00:00 8.7 3 Norte 10 Sudoeste 0 -- -- 76
2020-03-08 01:00:00 9.5 3 Noroeste 24 Este 0 -- -- 76
2020-03-08 00:00:00 11 16 Este 48 Este 0 -- -- 74
2020-03-07 23:00:00 11.2 22 Este 49 Sudeste 0 -- -- 78
2020-03-07 22:00:00 11.6 26 Sudeste 46 Sudeste 0 -- -- 77
2020-03-07 21:00:00 14.5 24 Sudeste 43 Este 0 -- -- 51
2020-03-07 20:00:00 15.5 21 Este 39 Este 0 -- -- 42
2020-03-07 19:00:00 16.2 18 Este 36 Sudeste 0 -- -- 48
2020-03-07 18:00:00 19.2 11 Oeste 28 Sudeste 0 -- -- 57
2020-03-07 17:00:00 18.3 14 Oeste 36 Sudeste 0 -- -- 62
2020-03-07 16:00:00 17.9 13 Sudoeste 38 Sudeste 0 -- -- 61
2020-03-07 15:00:00 17 23 Sudeste 46 Sudeste 0 -- -- 60
2020-03-07 14:00:00 17.8 19 Este 53 Este 0 -- -- 55
2020-03-07 13:00:00 15.9 33 Este 56 Este 0 -- -- 61
2020-03-07 12:00:00 14.8 36 Este 57 Este 0 -- -- 71
2020-03-07 11:00:00 13.8 32 Este 54 Este 0 -- -- 74
2020-03-07 10:00:00 12.7 28 Este 51 Este 0 -- -- 73
2020-03-07 09:00:00 11.3 22 Este 42 Este 0 -- -- 80
2020-03-07 08:00:00 10.3 24 Este 46 Este 0 -- -- 84
2020-03-07 07:00:00 10.3 19 Este 47 Este 0 -- -- 81
2020-03-07 06:00:00 9.8 24 Sudeste 38 Este 0 -- -- 81
2020-03-07 05:00:00 9.9 20 Este 49 Sudeste 0 -- -- 84
2020-03-07 04:00:00 10.4 30 Este 64 Este 0 -- -- 82
2020-03-07 03:00:00 10.2 28 Este 50 Este 0 -- -- 75
2020-03-07 02:00:00 10.1 27 Este 53 Este 0 -- -- 78
2020-03-07 01:00:00 10.1 28 Este 57 Sudeste 0 -- -- 77
2020-03-07 00:00:00 10.4 27 Este 56 Este 0 -- -- 78
2020-03-06 23:00:00 10.9 34 Este 59 Este 0 -- -- 77
2020-03-06 22:00:00 10.3 24 Este 60 Este 0 -- -- 77
2020-03-06 21:00:00 10.4 27 Este 60 Este 0 -- -- 76
2020-03-06 20:00:00 10.6 30 Este 69 Este 0 -- -- 76
2020-03-06 19:00:00 10.9 37 Este 65 Este 0 -- -- 81
2020-03-06 18:00:00 12.3 36 Este 64 Este 0 -- -- 81
2020-03-06 17:00:00 13.8 32 Este 65 Este 0 -- -- 73
2020-03-06 16:00:00 14.1 36 Este 67 Este 0 -- -- 72
2020-03-06 15:00:00 14.1 41 Este 73 Este 0 -- -- 70
2020-03-06 14:00:00 13.7 45 Este 77 Sudeste 0 -- -- 72
2020-03-06 13:00:00 13.4 44 Este 77 Este 0 -- -- 73
2020-03-06 12:00:00 13.2 39 Este 82 Sudeste 0 -- -- 74
2020-03-06 11:00:00 12.4 41 Este 72 Sudeste 0 -- -- 78
2020-03-06 10:00:00 11.6 37 Este 75 Este 0 -- -- 85
2020-03-06 09:00:00 10.4 43 Este 68 Este 0 -- -- 91
2020-03-06 08:00:00 10.5 37 Este 75 Este 0.2 -- -- 93
2020-03-06 07:00:00 10.9 40 Este 71 Este 0.2 -- -- 94
2020-03-06 06:00:00 11.8 37 Este 66 Este 0 -- -- 93
2020-03-06 05:00:00 12.3 39 Este 65 Sudeste 0.2 -- -- 91
2020-03-06 04:00:00 12.5 39 Este 67 Este 0 -- -- 90
2020-03-06 03:00:00 13.4 37 Este 64 Este 0 -- -- 88
2020-03-06 02:00:00 14.6 37 Este 68 Este 0 -- -- 77
2020-03-06 01:00:00 13.7 37 Este 64 Sudeste 0 -- -- 80
2020-03-06 00:00:00 12.9 38 Este 71 Este 0 -- -- 80
2020-03-05 23:00:00 14.1 39 Este 71 Este 0 -- -- 77
2020-03-05 22:00:00 12.9 40 Este 75 Este 0 -- -- 84
2020-03-05 21:00:00 13 41 Este 71 Este 0 -- -- 76
2020-03-05 20:00:00 13.6 35 Este 57 Este 0 -- -- 73
2020-03-05 19:00:00 15.9 29 Este 52 Sudeste 0 -- -- 64
2020-03-05 18:00:00 19.6 27 Este 51 Este 0 -- -- 46
2020-03-05 17:00:00 21.3 17 Este 50 Sudeste 0 -- -- 39
2020-03-05 16:00:00 23 12 Este 42 Este 0 -- -- 39
2020-03-05 15:00:00 22.3 19 Este 50 Este 0 -- -- 38
2020-03-05 14:00:00 22.4 28 Este 46 Este 0 -- -- 40
2020-03-05 13:00:00 22.3 24 Este 41 Este 0 -- -- 46
2020-03-05 12:00:00 23.1 8 Sur 19 Sur 0 -- -- 44
2020-03-05 11:00:00 22.2 8 Oeste 23 Este 0 -- -- 50
2020-03-05 10:00:00 20.7 18 Sudeste 33 Este 0 -- -- 42
2020-03-05 09:00:00 18.5 17 Sudeste 33 Este 0 -- -- 42
2020-03-05 08:00:00 15.3 6 Este 12 Sudeste 0 -- -- 40
2020-03-05 07:00:00 14.1 6 Este 11 Sudeste 0 -- -- 44
2020-03-05 06:00:00 14.2 8 Este 12 Este 0 -- -- 44
2020-03-05 05:00:00 14.1 3 Este 12 Este 0 -- -- 47
2020-03-05 04:00:00 14.3 6 Sudeste 12 Este 0 -- -- 48
2020-03-05 03:00:00 15 4 Noroeste 13 Oeste 0 -- -- 53
2020-03-05 02:00:00 15.8 9 Sudoeste 26 Oeste 0 -- -- 53
2020-03-05 01:00:00 17.4 9 Sudeste 18 Sudeste 0 -- -- 44
2020-03-05 00:00:00 16.8 12 Este 26 Oeste 0 -- -- 47